Time;durP1;ratioP1;P1;durP2;ratioP2;P2;SDS_P1;SDS_P2;PMS_P1;PMS_P2;Temp;Humidity;BMP_temperature;BMP_pressure;BME280_temperature;BME280_humidity;BME280_pressure;Samples;Min_cycle;Max_cycle;Signal;HPM_P1;HPM_P2
2023/04/10 00:00:10;;;;;;;53.00;25.85;;;;;;;;;;5031397;28;20119;-62
2023/04/10 00:02:36;;;;;;;65.32;26.17;;;;;;;;;;5031325;28;20165;-62
2023/04/10 00:05:03;;;;;;;38.22;20.85;;;;;;;;;;5031639;28;20400;-62
2023/04/10 00:07:30;;;;;;;41.72;20.60;;;;;;;;;;5031725;28;20037;-62
2023/04/10 00:09:56;;;;;;;34.70;19.00;;;;;;;;;;5031603;28;20080;-62
2023/04/10 00:12:24;;;;;;;33.78;19.05;;;;;;;;;;5031307;28;20493;-62
2023/04/10 00:14:50;;;;;;;33.47;17.45;;;;;;;;;;5014099;28;20115;-62
2023/04/10 00:17:16;;;;;;;51.90;21.10;;;;;;;;;;5031571;28;20054;-62
2023/04/10 00:19:43;;;;;;;37.60;19.73;;;;;;;;;;5031279;28;20045;-62
2023/04/10 00:22:09;;;;;;;32.33;18.85;;;;;;;;;;5031407;28;20395;-62
2023/04/10 00:24:35;;;;;;;31.83;17.05;;;;;;;;;;5031526;28;20045;-62
2023/04/10 00:27:02;;;;;;;36.75;17.83;;;;;;;;;;5035343;28;20080;-62
2023/04/10 00:29:28;;;;;;;38.15;16.85;;;;;;;;;;5035115;28;20486;-62
2023/04/10 00:31:55;;;;;;;28.85;16.20;;;;;;;;;;5035137;28;20050;-62
2023/04/10 00:34:21;;;;;;;35.35;17.67;;;;;;;;;;5035317;28;20065;-63
2023/04/10 00:36:47;;;;;;;40.85;18.67;;;;;;;;;;5035330;28;20041;-63
2023/04/10 00:39:14;;;;;;;22.10;14.23;;;;;;;;;;5035276;28;20055;-63
2023/04/10 00:41:40;;;;;;;18.85;12.90;;;;;;;;;;5035157;28;20045;-63
2023/04/10 00:44:07;;;;;;;42.00;17.48;;;;;;;;;;5034993;28;20132;-63
2023/04/10 00:46:36;;;;;;;27.08;14.55;;;;;;;;;;5034869;28;20124;-63
2023/04/10 00:49:03;;;;;;;28.67;14.02;;;;;;;;;;5034807;28;20446;-64
2023/04/10 00:51:30;;;;;;;17.77;12.37;;;;;;;;;;5035046;28;20069;-64
2023/04/10 00:53:58;;;;;;;22.53;13.27;;;;;;;;;;5034917;28;20286;-64
2023/04/10 00:56:25;;;;;;;23.20;13.60;;;;;;;;;;5034610;28;20049;-64
2023/04/10 00:58:51;;;;;;;19.65;12.35;;;;;;;;;;5034652;28;20208;-66
2023/04/10 01:01:18;;;;;;;23.73;13.75;;;;;;;;;;5034520;28;20607;-67
2023/04/10 01:03:44;;;;;;;21.55;12.30;;;;;;;;;;5034726;28;20128;-67
2023/04/10 01:06:43;;;;;;;22.80;12.32;;;;;;;;;;5016977;28;20092;-67
2023/04/10 01:09:30;;;;;;;20.02;10.82;;;;;;;;;;4997450;28;20054;-67
2023/04/10 01:12:12;;;;;;;20.65;10.05;;;;;;;;;;5034315;28;20089;-67
2023/04/10 01:14:48;;;;;;;10.07;7.22;;;;;;;;;;5034384;28;20136;-67
2023/04/10 01:17:20;;;;;;;9.07;7.30;;;;;;;;;;5034387;28;20067;-67
2023/04/10 01:20:05;;;;;;;23.08;9.90;;;;;;;;;;5034376;28;20049;-66
2023/04/10 01:22:38;;;;;;;18.10;10.32;;;;;;;;;;5034300;28;20140;-66
2023/04/10 01:25:16;;;;;;;15.30;11.13;;;;;;;;;;5034489;28;20059;-67
2023/04/10 01:27:52;;;;;;;20.05;12.43;;;;;;;;;;5033966;28;20056;-67
2023/04/10 01:30:20;;;;;;;18.00;10.20;;;;;;;;;;5034356;28;20059;-66
2023/04/10 01:32:47;;;;;;;16.30;11.10;;;;;;;;;;5033930;28;20049;-66
2023/04/10 01:35:14;;;;;;;15.88;10.82;;;;;;;;;;5034267;28;20049;-66
2023/04/10 01:37:42;;;;;;;13.37;10.17;;;;;;;;;;5033673;28;20057;-67
2023/04/10 01:40:10;;;;;;;20.42;10.98;;;;;;;;;;5034176;28;20054;-67
2023/04/10 01:42:40;;;;;;;18.15;10.43;;;;;;;;;;5034048;28;20067;-67
2023/04/10 01:45:11;;;;;;;11.23;8.82;;;;;;;;;;5034102;28;20045;-67
2023/04/10 01:47:37;;;;;;;16.33;9.82;;;;;;;;;;5033877;28;20056;-67
2023/04/10 01:50:05;;;;;;;12.18;8.30;;;;;;;;;;5034052;28;20056;-67
2023/04/10 01:52:31;;;;;;;14.00;8.10;;;;;;;;;;5033951;28;20132;-67
2023/04/10 01:54:58;;;;;;;13.57;8.85;;;;;;;;;;5033572;28;20132;-68
2023/04/10 01:57:25;;;;;;;11.07;7.57;;;;;;;;;;5033653;28;20412;-68
2023/04/10 01:59:51;;;;;;;9.70;7.80;;;;;;;;;;5033722;28;20132;-69
2023/04/10 02:02:17;;;;;;;9.40;7.20;;;;;;;;;;5033310;28;20076;-69
2023/04/10 02:04:50;;;;;;;7.63;6.68;;;;;;;;;;5033600;28;20048;-68
2023/04/10 02:07:23;;;;;;;10.48;7.28;;;;;;;;;;5033456;28;20128;-68
2023/04/10 02:09:57;;;;;;;8.40;6.82;;;;;;;;;;5015789;28;20077;-68
2023/04/10 02:12:43;;;;;;;8.15;6.95;;;;;;;;;;5033237;28;20051;-69
2023/04/10 02:15:10;;;;;;;8.75;6.90;;;;;;;;;;5033291;28;20494;-68
2023/04/10 02:17:38;;;;;;;11.43;7.38;;;;;;;;;;5033359;28;20041;-68
2023/04/10 02:20:06;;;;;;;10.13;6.30;;;;;;;;;;5033175;28;20068;-69
2023/04/10 02:22:33;;;;;;;19.20;8.23;;;;;;;;;;5031729;28;20129;-69
2023/04/10 02:24:59;;;;;;;16.10;7.13;;;;;;;;;;5032929;28;20132;-69
2023/04/10 02:27:26;;;;;;;8.77;5.22;;;;;;;;;;5033027;28;20123;-69
2023/04/10 02:29:52;;;;;;;19.65;6.18;;;;;;;;;;5033192;28;20056;-69
2023/04/10 02:32:19;;;;;;;18.55;5.22;;;;;;;;;;5032946;28;20045;-69
2023/04/10 02:34:45;;;;;;;27.05;5.50;;;;;;;;;;5032880;28;20053;-70
2023/04/10 02:37:12;;;;;;;23.95;4.80;;;;;;;;;;5033001;28;20057;-70
2023/04/10 02:39:39;;;;;;;17.00;5.30;;;;;;;;;;5032995;28;20128;-70
2023/04/10 02:42:05;;;;;;;13.85;5.15;;;;;;;;;;5015121;28;20580;-71
2023/04/10 02:44:31;;;;;;;17.85;5.30;;;;;;;;;;5032476;28;20481;-72
2023/04/10 02:46:58;;;;;;;12.77;4.90;;;;;;;;;;5032735;28;20386;-72
2023/04/10 02:49:24;;;;;;;17.00;6.15;;;;;;;;;;5031593;28;20554;-72
2023/04/10 02:51:51;;;;;;;28.42;6.25;;;;;;;;;;5032534;28;20497;-73
2023/04/10 02:54:17;;;;;;;10.75;4.75;;;;;;;;;;5032654;28;20053;-73
2023/04/10 02:56:43;;;;;;;22.88;6.40;;;;;;;;;;5032397;28;20045;-72
2023/04/10 02:59:10;;;;;;;27.38;7.28;;;;;;;;;;5032341;28;20053;-72
2023/04/10 03:01:38;;;;;;;16.55;5.90;;;;;;;;;;5032161;28;20045;-72
2023/04/10 03:04:05;;;;;;;20.50;6.88;;;;;;;;;;5032776;28;20128;-72
2023/04/10 03:06:31;;;;;;;20.33;6.68;;;;;;;;;;5032441;28;20041;-72
2023/04/10 03:08:57;;;;;;;17.88;6.82;;;;;;;;;;5032292;28;20096;-72
2023/04/10 03:11:24;;;;;;;19.48;5.90;;;;;;;;;;5032412;28;20064;-72
2023/04/10 03:13:51;;;;;;;21.23;6.25;;;;;;;;;;5032184;28;20055;-72
2023/04/10 03:16:18;;;;;;;18.20;5.65;;;;;;;;;;5032199;28;20045;-71
2023/04/10 03:18:44;;;;;;;23.42;6.10;;;;;;;;;;5032024;28;20485;-71
2023/04/10 03:21:11;;;;;;;24.85;6.07;;;;;;;;;;5032009;28;20136;-70
2023/04/10 03:23:37;;;;;;;11.88;5.85;;;;;;;;;;5032100;28;20045;-70
2023/04/10 03:26:04;;;;;;;14.30;5.88;;;;;;;;;;5032264;28;20045;-71
2023/04/10 03:28:32;;;;;;;14.77;4.82;;;;;;;;;;5031710;28;20548;-70
2023/04/10 03:30:58;;;;;;;21.58;6.82;;;;;;;;;;5031877;28;20498;-70
2023/04/10 03:33:24;;;;;;;14.85;5.40;;;;;;;;;;5031799;28;20053;-70
2023/04/10 03:35:52;;;;;;;14.85;5.78;;;;;;;;;;5032237;28;20048;-71
2023/04/10 03:38:19;;;;;;;15.05;5.55;;;;;;;;;;5031838;28;20402;-70
2023/04/10 03:40:45;;;;;;;17.30;6.47;;;;;;;;;;5031984;28;20045;-70
2023/04/10 03:43:11;;;;;;;25.65;7.43;;;;;;;;;;5031807;28;20049;-70
2023/04/10 03:45:38;;;;;;;27.25;6.95;;;;;;;;;;5047231;28;20056;-70
2023/04/10 03:48:04;;;;;;;13.48;5.95;;;;;;;;;;5031642;28;20052;-70
2023/04/10 03:50:31;;;;;;;21.42;6.90;;;;;;;;;;5031577;28;20505;-70
2023/04/10 03:52:57;;;;;;;18.75;6.07;;;;;;;;;;5032015;28;20052;-70
2023/04/10 03:55:23;;;;;;;21.27;6.60;;;;;;;;;;5031922;28;20404;-70
2023/04/10 03:57:50;;;;;;;25.23;8.32;;;;;;;;;;5031460;28;20046;-70
2023/04/10 04:00:16;;;;;;;20.60;7.70;;;;;;;;;;5033653;28;20052;-70
2023/04/10 04:02:43;;;;;;;14.90;5.95;;;;;;;;;;5037872;28;20631;-70
2023/04/10 04:05:09;;;;;;;16.50;6.47;;;;;;;;;;5038246;28;20138;-70
2023/04/10 04:07:36;;;;;;;28.02;8.48;;;;;;;;;;5038223;28;20048;-70
2023/04/10 04:10:02;;;;;;;15.68;6.68;;;;;;;;;;5038211;28;20041;-70
2023/04/10 04:12:29;;;;;;;23.73;7.68;;;;;;;;;;5020464;28;20049;-70
2023/04/10 04:14:55;;;;;;;18.48;7.53;;;;;;;;;;5037919;28;20049;-70
2023/04/10 04:17:22;;;;;;;16.73;7.80;;;;;;;;;;5038222;28;20059;-70
2023/04/10 04:19:48;;;;;;;19.05;8.30;;;;;;;;;;5037888;28;20488;-70
2023/04/10 04:22:15;;;;;;;26.83;9.40;;;;;;;;;;5038151;28;20050;-69
2023/04/10 04:24:41;;;;;;;29.40;10.02;;;;;;;;;;5038059;28;20136;-69
2023/04/10 04:27:07;;;;;;;24.83;9.43;;;;;;;;;;5038103;28;20056;-70
2023/04/10 04:29:34;;;;;;;23.13;9.65;;;;;;;;;;5037713;28;20046;-70
2023/04/10 04:32:00;;;;;;;50.03;12.90;;;;;;;;;;5037813;28;20158;-70
2023/04/10 04:34:27;;;;;;;25.73;9.57;;;;;;;;;;5038151;28;20081;-69
2023/04/10 04:36:53;;;;;;;31.67;10.82;;;;;;;;;;5037672;28;20493;-69
2023/04/10 04:39:21;;;;;;;21.67;9.23;;;;;;;;;;5037783;28;20053;-69
2023/04/10 04:41:48;;;;;;;20.30;9.90;;;;;;;;;;5020087;28;20809;-70
2023/04/10 04:44:14;;;;;;;23.90;9.98;;;;;;;;;;5037607;28;20042;-70
2023/04/10 04:46:41;;;;;;;19.33;9.30;;;;;;;;;;5020341;28;20049;-69
2023/04/10 04:49:10;;;;;;;40.63;12.18;;;;;;;;;;5037607;28;20045;-69
2023/04/10 04:51:37;;;;;;;34.55;11.30;;;;;;;;;;5038097;28;20087;-70
2023/04/10 04:54:03;;;;;;;23.17;9.90;;;;;;;;;;5020043;28;20447;-70
2023/04/10 04:56:29;;;;;;;24.23;10.05;;;;;;;;;;5037937;28;20371;-70
2023/04/10 04:58:56;;;;;;;19.10;9.20;;;;;;;;;;5037500;28;20059;-69
2023/04/10 05:01:22;;;;;;;23.75;11.00;;;;;;;;;;5037432;28;20072;-69
2023/04/10 05:03:49;;;;;;;22.63;10.52;;;;;;;;;;5037818;28;20053;-69
2023/04/10 05:06:17;;;;;;;24.50;11.57;;;;;;;;;;5037745;28;20041;-69
2023/04/10 05:08:43;;;;;;;26.58;12.98;;;;;;;;;;5037646;28;20053;-69
2023/04/10 05:11:10;;;;;;;27.98;12.65;;;;;;;;;;5037015;28;20049;-69
2023/04/10 05:13:36;;;;;;;26.80;11.20;;;;;;;;;;5033627;28;20056;-69
2023/04/10 05:16:03;;;;;;;18.70;10.02;;;;;;;;;;5034531;28;20079;-69
2023/04/10 05:18:29;;;;;;;22.67;10.20;;;;;;;;;;5034600;28;20076;-69
2023/04/10 05:20:56;;;;;;;20.10;9.93;;;;;;;;;;5034322;28;20104;-69
2023/04/10 05:23:22;;;;;;;23.25;9.20;;;;;;;;;;5034215;28;20059;-69
2023/04/10 05:25:48;;;;;;;19.92;9.45;;;;;;;;;;5034186;28;20049;-69
2023/04/10 05:28:15;;;;;;;20.65;10.07;;;;;;;;;;5034259;28;20128;-69
2023/04/10 05:30:41;;;;;;;23.60;10.48;;;;;;;;;;5034205;28;20409;-69
2023/04/10 05:33:07;;;;;;;24.67;10.68;;;;;;;;;;5034260;28;20045;-69
2023/04/10 05:35:34;;;;;;;28.13;10.75;;;;;;;;;;5034237;28;20045;-69
2023/04/10 05:38:00;;;;;;;33.65;12.48;;;;;;;;;;5034283;28;20405;-69
2023/04/10 05:40:27;;;;;;;29.77;11.93;;;;;;;;;;5033820;28;20136;-69
2023/04/10 05:42:53;;;;;;;31.10;11.85;;;;;;;;;;5034219;28;20045;-68
2023/04/10 05:45:20;;;;;;;29.52;12.63;;;;;;;;;;5033780;28;20056;-69
2023/04/10 05:47:46;;;;;;;33.58;12.75;;;;;;;;;;5034123;28;20047;-69
2023/04/10 05:50:12;;;;;;;25.73;10.60;;;;;;;;;;5034068;28;20049;-69
2023/04/10 05:52:39;;;;;;;26.77;9.73;;;;;;;;;;5033584;28;20045;-69
2023/04/10 05:55:06;;;;;;;18.65;8.32;;;;;;;;;;5033625;28;20539;-69
2023/04/10 05:57:32;;;;;;;18.73;8.20;;;;;;;;;;5033535;28;20055;-69
2023/04/10 05:59:59;;;;;;;23.23;8.38;;;;;;;;;;5033552;28;20049;-69
2023/04/10 06:02:26;;;;;;;21.10;7.82;;;;;;;;;;5012315;28;20057;-70
2023/04/10 06:04:53;;;;;;;19.98;7.53;;;;;;;;;;5012388;28;20050;-69
2023/04/10 06:07:19;;;;;;;23.95;8.38;;;;;;;;;;5013775;28;20418;-70
2023/04/10 06:09:46;;;;;;;18.88;8.32;;;;;;;;;;5013750;28;20081;-70
2023/04/10 06:12:12;;;;;;;17.60;7.35;;;;;;;;;;5013602;28;20052;-70
2023/04/10 06:14:38;;;;;;;20.63;7.88;;;;;;;;;;5013458;28;20052;-70
2023/04/10 06:17:05;;;;;;;23.42;7.00;;;;;;;;;;5013750;28;20050;-70
2023/04/10 06:19:31;;;;;;;11.32;5.05;;;;;;;;;;5013354;28;20053;-70
2023/04/10 06:21:58;;;;;;;10.90;4.90;;;;;;;;;;5014009;28;20049;-70
2023/04/10 06:24:24;;;;;;;9.63;4.40;;;;;;;;;;5013078;28;20046;-71
2023/04/10 06:26:51;;;;;;;8.27;3.40;;;;;;;;;;5011987;28;20042;-71
2023/04/10 06:29:17;;;;;;;9.18;3.20;;;;;;;;;;5012206;28;20045;-71
2023/04/10 06:31:43;;;;;;;7.10;2.60;;;;;;;;;;5013033;28;20054;-71
2023/04/10 06:34:10;;;;;;;5.38;2.88;;;;;;;;;;5013296;28;20057;-71
2023/04/10 06:36:36;;;;;;;3.60;2.20;;;;;;;;;;5013148;28;20490;-71
2023/04/10 06:39:03;;;;;;;6.95;2.25;;;;;;;;;;5013020;28;20085;-71
2023/04/10 06:41:29;;;;;;;5.72;2.47;;;;;;;;;;5013172;28;20050;-71
2023/04/10 06:43:56;;;;;;;6.07;1.83;;;;;;;;;;5012869;28;20596;-70
2023/04/10 06:46:22;;;;;;;2.70;1.50;;;;;;;;;;5013213;28;20050;-71
2023/04/10 06:48:48;;;;;;;3.28;1.58;;;;;;;;;;5012853;28;20084;-71
2023/04/10 06:51:15;;;;;;;3.90;1.83;;;;;;;;;;5012821;28;20507;-71
2023/04/10 06:53:42;;;;;;;3.33;1.70;;;;;;;;;;5012876;28;20447;-71
2023/04/10 06:56:08;;;;;;;2.45;1.20;;;;;;;;;;5012719;28;20059;-71
2023/04/10 06:58:35;;;;;;;3.05;1.40;;;;;;;;;;5012846;28;20049;-71
2023/04/10 07:01:03;;;;;;;6.32;1.90;;;;;;;;;;5014327;28;20049;-71
2023/04/10 07:03:31;;;;;;;4.47;2.30;;;;;;;;;;5032472;28;20179;-71
2023/04/10 07:05:57;;;;;;;;;;;;;;;;;;5032614;28;20045;-72
2023/04/10 07:08:24;;;;;;;7.78;3.58;;;;;;;;;;5032557;28;19927;-72
2023/04/10 07:10:50;;;;;;;17.52;4.28;;;;;;;;;;5032461;28;20049;-72
2023/04/10 07:13:17;;;;;;;6.88;3.50;;;;;;;;;;5032512;28;20053;-71
2023/04/10 07:15:43;;;;;;;5.68;3.30;;;;;;;;;;5032193;28;20489;-71
2023/04/10 07:18:09;;;;;;;4.68;2.85;;;;;;;;;;5032075;28;20141;-71
2023/04/10 07:20:36;;;;;;;4.28;2.67;;;;;;;;;;5032007;28;20065;-71
2023/04/10 07:23:02;;;;;;;2.80;1.50;;;;;;;;;;5031982;28;20053;-71
2023/04/10 07:25:28;;;;;;;2.97;1.80;;;;;;;;;;5032082;28;20054;-71
2023/04/10 07:27:55;;;;;;;3.22;2.45;;;;;;;;;;5032076;28;20056;-71
2023/04/10 07:30:21;;;;;;;4.18;2.00;;;;;;;;;;5032433;28;20132;-71
2023/04/10 07:32:47;;;;;;;2.67;1.90;;;;;;;;;;5031950;28;20041;-71
2023/04/10 07:35:14;;;;;;;5.57;2.67;;;;;;;;;;5031219;28;20064;-71
2023/04/10 07:37:42;;;;;;;3.15;2.70;;;;;;;;;;5031591;28;20060;-71
2023/04/10 07:40:09;;;;;;;4.20;3.10;;;;;;;;;;5032053;28;20056;-71
2023/04/10 07:42:35;;;;;;;4.32;2.92;;;;;;;;;;5025177;28;20051;-71
2023/04/10 07:45:02;;;;;;;5.32;3.60;;;;;;;;;;5031555;28;20107;-70
2023/04/10 07:47:28;;;;;;;6.15;4.20;;;;;;;;;;5031718;28;20478;-70
2023/04/10 07:49:55;;;;;;;5.53;4.07;;;;;;;;;;5031546;28;20183;-70
2023/04/10 07:52:21;;;;;;;4.63;4.13;;;;;;;;;;5031869;28;20045;-70
2023/04/10 07:54:48;;;;;;;6.00;4.93;;;;;;;;;;5012698;28;20053;-70
2023/04/10 07:57:15;;;;;;;5.00;4.47;;;;;;;;;;5027669;28;20050;-71
2023/04/10 07:59:41;;;;;;;5.93;4.43;;;;;;;;;;5017937;28;20054;-72
2023/04/10 08:04:49;;;;;;;5.95;4.53;;;;;;;;;;4682691;26;20075;-73
2023/04/10 08:07:16;;;;;;;4.53;3.85;;;;;;;;;;4950499;28;20482;-73
2023/04/10 08:09:42;;;;;;;4.40;3.90;;;;;;;;;;4953271;29;20069;-72
2023/04/10 08:12:08;;;;;;;5.05;3.95;;;;;;;;;;4952112;28;20049;-72
2023/04/10 08:14:35;;;;;;;5.43;3.80;;;;;;;;;;4953306;29;20051;-71
2023/04/10 08:17:01;;;;;;;3.38;3.10;;;;;;;;;;4952386;28;20522;-68
2023/04/10 08:19:28;;;;;;;2.90;2.70;;;;;;;;;;4936564;28;20063;-67
2023/04/10 08:21:54;;;;;;;3.65;2.60;;;;;;;;;;4953251;28;20418;-67
2023/04/10 08:24:21;;;;;;;3.20;2.70;;;;;;;;;;4941743;29;20411;-62
2023/04/10 08:26:48;;;;;;;2.92;2.70;;;;;;;;;;4944997;28;20596;-63
2023/04/10 08:29:15;;;;;;;3.38;2.60;;;;;;;;;;4931586;28;20055;-62
2023/04/10 08:31:41;;;;;;;3.17;2.33;;;;;;;;;;4930231;28;20058;-63
2023/04/10 08:34:07;;;;;;;3.75;2.72;;;;;;;;;;4939038;29;20055;-63
2023/04/10 08:36:34;;;;;;;7.45;2.60;;;;;;;;;;4842187;28;20166;-65
2023/04/10 08:39:00;;;;;;;3.40;2.17;;;;;;;;;;4946073;28;20058;-65
2023/04/10 08:41:27;;;;;;;5.53;2.30;;;;;;;;;;4924573;29;20067;-65
2023/04/10 08:43:53;;;;;;;4.13;2.70;;;;;;;;;;4931120;28;20123;-65
2023/04/10 08:46:22;;;;;;;8.50;3.10;;;;;;;;;;4934305;29;20052;-65
2023/04/10 08:49:00;;;;;;;9.98;1.50;;;;;;;;;;4955732;28;20047;-66
2023/04/10 08:51:30;;;;;;;4.28;0.70;;;;;;;;;;4955253;28;20419;-66
2023/04/10 08:53:57;;;;;;;2.80;1.10;;;;;;;;;;4941640;28;20052;-66
2023/04/10 08:56:24;;;;;;;1.10;0.98;;;;;;;;;;4937666;28;20052;-66
2023/04/10 08:58:51;;;;;;;2.53;1.00;;;;;;;;;;4937561;28;20110;-66
2023/04/10 09:01:18;;;;;;;3.33;0.90;;;;;;;;;;4945621;28;20079;-65
2023/04/10 09:03:46;;;;;;;4.28;1.40;;;;;;;;;;4944558;28;20063;-65
2023/04/10 09:06:13;;;;;;;7.18;1.20;;;;;;;;;;4936099;29;20134;-65
2023/04/10 09:08:39;;;;;;;6.70;1.30;;;;;;;;;;4937251;29;20050;-65
2023/04/10 09:11:06;;;;;;;13.75;5.38;;;;;;;;;;4936584;29;20087;-65
2023/04/10 09:13:39;;;;;;;15.40;5.05;;;;;;;;;;4935808;29;20058;-65
2023/04/10 09:16:06;;;;;;;19.95;10.60;;;;;;;;;;4934702;29;20049;-64
2023/04/10 09:18:46;;;;;;;25.13;11.15;;;;;;;;;;4934707;29;20053;-65
2023/04/10 09:21:17;;;;;;;13.35;4.22;;;;;;;;;;4935999;29;20077;-64
2023/04/10 09:23:46;;;;;;;15.07;5.32;;;;;;;;;;4936720;29;20099;-65
2023/04/10 09:26:26;;;;;;;8.43;4.15;;;;;;;;;;4936902;29;20051;-65
2023/04/10 09:28:59;;;;;;;12.88;4.75;;;;;;;;;;4937290;29;20075;-64
2023/04/10 09:31:26;;;;;;;9.55;2.63;;;;;;;;;;4935590;29;20054;-65
2023/04/10 09:34:06;;;;;;;11.32;2.80;;;;;;;;;;4936848;29;20056;-64
2023/04/10 09:36:32;;;;;;;8.18;1.95;;;;;;;;;;4935858;29;20047;-64
2023/04/10 09:38:59;;;;;;;8.83;2.23;;;;;;;;;;4937123;29;20048;-64
2023/04/10 09:41:26;;;;;;;7.93;1.67;;;;;;;;;;4936687;29;20499;-64
2023/04/10 09:44:09;;;;;;;8.57;2.20;;;;;;;;;;4936621;29;20285;-64
2023/04/10 09:46:35;;;;;;;9.48;2.70;;;;;;;;;;4936519;29;20471;-64
2023/04/10 09:49:03;;;;;;;6.80;2.03;;;;;;;;;;4936845;29;20055;-65
2023/04/10 09:51:30;;;;;;;9.57;1.48;;;;;;;;;;4936909;29;20054;-64
2023/04/10 09:53:57;;;;;;;8.90;1.38;;;;;;;;;;4936763;29;20047;-64
2023/04/10 09:56:25;;;;;;;6.43;1.58;;;;;;;;;;4933083;29;20063;-65
2023/04/10 09:58:52;;;;;;;7.75;1.70;;;;;;;;;;4926372;29;20058;-65
2023/04/10 10:01:20;;;;;;;10.43;1.90;;;;;;;;;;4929406;29;20122;-64
2023/04/10 10:03:47;;;;;;;5.65;1.60;;;;;;;;;;4934939;29;20064;-65
2023/04/10 10:06:15;;;;;;;7.65;1.95;;;;;;;;;;4924123;29;20125;-64
2023/04/10 10:08:41;;;;;;;11.30;3.57;;;;;;;;;;4936465;29;20048;-65
2023/04/10 10:11:10;;;;;;;7.88;2.40;;;;;;;;;;4936411;29;20294;-64
2023/04/10 10:13:51;;;;;;;7.80;2.17;;;;;;;;;;4930390;29;20123;-64
2023/04/10 10:16:19;;;;;;;9.10;1.90;;;;;;;;;;4935288;29;20052;-64
2023/04/10 10:19:01;;;;;;;9.68;2.10;;;;;;;;;;4936043;29;20495;-63
2023/04/10 10:21:29;;;;;;;10.00;2.05;;;;;;;;;;4923895;29;20060;-64
2023/04/10 10:23:57;;;;;;;8.40;2.22;;;;;;;;;;4932111;29;20694;-64
2023/04/10 10:26:24;;;;;;;9.00;2.35;;;;;;;;;;4936192;29;20051;-64
2023/04/10 10:28:53;;;;;;;9.15;2.08;;;;;;;;;;4936102;29;20052;-63
2023/04/10 10:31:21;;;;;;;6.10;1.77;;;;;;;;;;4925707;29;20081;-63
2023/04/10 10:33:49;;;;;;;9.13;1.70;;;;;;;;;;4935365;29;20044;-63
2023/04/10 10:36:17;;;;;;;5.97;1.73;;;;;;;;;;4935727;29;20054;-63
2023/04/10 10:38:49;;;;;;;6.22;2.15;;;;;;;;;;4935621;29;20491;-63
2023/04/10 10:41:24;;;;;;;10.10;2.50;;;;;;;;;;4935650;29;20463;-63
2023/04/10 10:43:50;;;;;;;8.48;3.03;;;;;;;;;;4935638;29;20499;-63
2023/04/10 10:46:29;;;;;;;8.10;2.70;;;;;;;;;;4935464;29;20063;-63
2023/04/10 10:48:56;;;;;;;4.97;1.80;;;;;;;;;;4935518;29;20526;-63
2023/04/10 10:51:23;;;;;;;6.22;1.70;;;;;;;;;;4935748;29;20052;-63
2023/04/10 10:53:49;;;;;;;5.88;1.90;;;;;;;;;;4935597;29;20050;-63
2023/04/10 10:56:18;;;;;;;6.68;1.85;;;;;;;;;;4935418;29;20058;-63
2023/04/10 10:58:49;;;;;;;7.65;1.92;;;;;;;;;;4935571;29;20110;-63
2023/04/10 11:01:16;;;;;;;7.43;1.52;;;;;;;;;;4935573;29;20098;-63
2023/04/10 11:03:45;;;;;;;6.43;1.95;;;;;;;;;;4927661;29;20067;-63
2023/04/10 11:06:18;;;;;;;7.45;1.50;;;;;;;;;;4935630;29;20146;-63
2023/04/10 11:08:53;;;;;;;6.60;1.70;;;;;;;;;;4934964;29;20043;-63
2023/04/10 11:11:23;;;;;;;8.52;2.17;;;;;;;;;;4928135;29;20074;-63
2023/04/10 11:13:59;;;;;;;7.10;1.80;;;;;;;;;;4934981;29;20119;-63
2023/04/10 11:16:28;;;;;;;7.38;1.65;;;;;;;;;;4925850;29;20052;-63
2023/04/10 11:19:05;;;;;;;8.88;2.30;;;;;;;;;;4920710;29;20055;-63
2023/04/10 11:21:59;;;;;;;9.32;2.22;;;;;;;;;;4934671;29;20519;-63
2023/04/10 11:24:25;;;;;;;6.95;2.10;;;;;;;;;;4935188;29;20075;-62
2023/04/10 11:26:52;;;;;;;5.43;1.50;;;;;;;;;;4935141;29;20043;-63
2023/04/10 11:29:27;;;;;;;7.18;1.75;;;;;;;;;;4929249;29;20053;-63
2023/04/10 11:31:57;;;;;;;7.57;2.45;;;;;;;;;;4935164;29;20054;-63
2023/04/10 11:34:23;;;;;;;6.90;2.25;;;;;;;;;;4934645;29;20407;-62
2023/04/10 11:36:52;;;;;;;7.60;1.90;;;;;;;;;;4935061;29;20074;-62
2023/04/10 11:39:19;;;;;;;10.40;3.40;;;;;;;;;;4934687;29;20055;-62
2023/04/10 11:41:49;;;;;;;14.27;3.10;;;;;;;;;;4934770;29;20505;-63
2023/04/10 11:44:26;;;;;;;12.32;2.80;;;;;;;;;;4934521;29;20507;-64
2023/04/10 11:46:53;;;;;;;14.25;2.63;;;;;;;;;;4934744;29;20055;-63
2023/04/10 11:49:20;;;;;;;14.07;3.30;;;;;;;;;;4934594;29;20151;-63
2023/04/10 11:51:47;;;;;;;19.65;3.75;;;;;;;;;;4934595;29;20054;-63
2023/04/10 11:54:16;;;;;;;11.85;3.28;;;;;;;;;;4934647;29;20051;-63
2023/04/10 11:56:44;;;;;;;11.02;4.25;;;;;;;;;;4934837;29;20058;-63
2023/04/10 11:59:12;;;;;;;8.80;2.47;;;;;;;;;;4934382;29;20090;-63
2023/04/10 12:01:39;;;;;;;7.80;2.40;;;;;;;;;;4934422;29;20455;-63
2023/04/10 12:04:15;;;;;;;9.82;3.50;;;;;;;;;;4934184;29;20419;-63
2023/04/10 12:06:46;;;;;;;8.82;2.38;;;;;;;;;;4934350;29;20525;-63
2023/04/10 12:09:14;;;;;;;6.55;1.80;;;;;;;;;;4934720;29;20060;-63
2023/04/10 12:11:47;;;;;;;8.00;1.85;;;;;;;;;;4934327;29;20071;-63
2023/04/10 12:14:14;;;;;;;8.35;2.10;;;;;;;;;;4934595;29;20055;-63
2023/04/10 12:16:40;;;;;;;8.52;2.40;;;;;;;;;;4934688;29;20054;-63
2023/04/10 12:19:07;;;;;;;5.60;1.52;;;;;;;;;;4934316;29;20564;-63
2023/04/10 12:21:37;;;;;;;4.80;1.35;;;;;;;;;;4935948;29;20043;-63
2023/04/10 12:24:04;;;;;;;4.72;1.50;;;;;;;;;;4938191;29;20058;-63
2023/04/10 12:26:30;;;;;;;;;;;;;;;;;;4938667;29;20047;-63
2023/04/10 12:28:57;;;;;;;8.52;2.60;;;;;;;;;;4938136;29;19933;-63
2023/04/10 12:31:30;;;;;;;8.65;2.33;;;;;;;;;;4938257;29;20048;-63
2023/04/10 12:33:57;;;;;;;8.50;2.30;;;;;;;;;;4938040;29;20051;-63
2023/04/10 12:36:28;;;;;;;8.38;2.17;;;;;;;;;;4937872;29;20503;-63
2023/04/10 12:38:55;;;;;;;8.50;2.30;;;;;;;;;;4937958;29;20056;-63
2023/04/10 12:41:23;;;;;;;7.75;1.90;;;;;;;;;;4937871;29;20059;-63
2023/04/10 12:43:50;;;;;;;7.47;1.65;;;;;;;;;;4938176;29;20052;-63
2023/04/10 12:46:24;;;;;;;5.13;1.58;;;;;;;;;;4937980;29;20052;-63
2023/04/10 12:48:51;;;;;;;5.78;1.52;;;;;;;;;;4938061;29;20472;-63
2023/04/10 12:51:18;;;;;;;5.47;1.50;;;;;;;;;;4937742;29;20074;-63
2023/04/10 12:53:45;;;;;;;7.05;1.75;;;;;;;;;;4937785;29;20044;-63
2023/04/10 12:56:12;;;;;;;14.48;2.13;;;;;;;;;;4937801;29;20134;-69
2023/04/10 12:58:39;;;;;;;5.82;1.75;;;;;;;;;;4937629;29;20431;-71
2023/04/10 13:01:08;;;;;;;7.43;2.10;;;;;;;;;;4937721;29;20119;-71
2023/04/10 13:03:35;;;;;;;7.50;2.20;;;;;;;;;;4933889;29;20167;-69
2023/04/10 13:06:03;;;;;;;6.90;2.30;;;;;;;;;;4933458;29;20048;-70
2023/04/10 13:08:31;;;;;;;5.03;1.60;;;;;;;;;;4928285;29;20388;-71
2023/04/10 13:11:01;;;;;;;7.65;2.42;;;;;;;;;;4937357;29;20047;-70
2023/04/10 13:13:29;;;;;;;6.35;2.40;;;;;;;;;;4937689;29;20055;-70
2023/04/10 13:15:55;;;;;;;4.72;1.67;;;;;;;;;;4937206;29;20525;-70
2023/04/10 13:18:22;;;;;;;4.60;1.60;;;;;;;;;;4937419;29;20475;-70
2023/04/10 13:20:48;;;;;;;3.10;1.48;;;;;;;;;;4937453;29;20052;-70
2023/04/10 13:23:14;;;;;;;5.88;1.70;;;;;;;;;;4937085;29;20061;-70
2023/04/10 13:25:41;;;;;;;6.32;1.90;;;;;;;;;;4936986;29;20054;-70
2023/04/10 13:28:11;;;;;;;6.47;1.92;;;;;;;;;;4937339;29;20044;-70
2023/04/10 13:30:38;;;;;;;6.18;2.30;;;;;;;;;;4937234;29;20055;-70
2023/04/10 13:33:04;;;;;;;5.78;1.70;;;;;;;;;;4936064;29;20058;-70
2023/04/10 13:35:31;;;;;;;;;;;;;;;;;;4936068;29;20056;-71
2023/04/10 13:37:57;;;;;;;5.03;1.50;;;;;;;;;;4936914;29;20043;-70
2023/04/10 13:40:24;;;;;;;7.82;2.40;;;;;;;;;;4936861;29;20498;-70
2023/04/10 13:42:50;;;;;;;6.70;2.05;;;;;;;;;;4937130;29;20047;-70
2023/04/10 13:45:17;;;;;;;5.97;1.70;;;;;;;;;;4936761;29;20503;-70
2023/04/10 13:47:43;;;;;;;6.80;1.67;;;;;;;;;;4936866;29;20060;-69
2023/04/10 13:50:10;;;;;;;7.82;1.98;;;;;;;;;;4935843;29;20052;-70
2023/04/10 13:52:36;;;;;;;5.20;1.88;;;;;;;;;;4936643;29;20051;-70
2023/04/10 13:55:03;;;;;;;6.05;1.48;;;;;;;;;;4937357;29;20135;-70
2023/04/10 13:57:29;;;;;;;7.30;1.80;;;;;;;;;;4936538;29;20055;-70
2023/04/10 13:59:56;;;;;;;6.25;1.48;;;;;;;;;;4936672;29;20056;-69
2023/04/10 14:02:22;;;;;;;4.17;1.50;;;;;;;;;;4936000;29;20053;-69
2023/04/10 14:04:50;;;;;;;6.35;1.63;;;;;;;;;;4935932;29;20797;-69
2023/04/10 14:07:17;;;;;;;4.95;1.55;;;;;;;;;;4922963;29;20088;-69
2023/04/10 14:09:45;;;;;;;5.97;1.70;;;;;;;;;;4932426;29;20052;-69
2023/04/10 14:12:15;;;;;;;7.32;1.80;;;;;;;;;;4926593;29;20063;-70
2023/04/10 14:14:42;;;;;;;5.68;2.22;;;;;;;;;;4934326;29;20048;-69
2023/04/10 14:17:08;;;;;;;5.38;1.60;;;;;;;;;;4936147;29;20055;-69
2023/04/10 14:19:36;;;;;;;5.88;2.20;;;;;;;;;;4936257;29;20151;-69
2023/04/10 14:22:02;;;;;;;5.45;1.88;;;;;;;;;;4936199;29;20059;-69
2023/04/10 14:24:28;;;;;;;6.72;2.25;;;;;;;;;;4936210;29;20452;-69
2023/04/10 14:26:57;;;;;;;8.13;1.92;;;;;;;;;;4935470;29;20054;-68
2023/04/10 14:29:23;;;;;;;8.23;2.10;;;;;;;;;;4932625;29;20060;-70
2023/04/10 14:32:02;;;;;;;9.35;2.17;;;;;;;;;;4933550;29;20107;-70
2023/04/10 14:34:29;;;;;;;10.18;2.28;;;;;;;;;;4935886;29;20047;-69
2023/04/10 14:36:55;;;;;;;5.28;2.00;;;;;;;;;;4935766;29;20418;-69
2023/04/10 14:39:22;;;;;;;6.45;1.85;;;;;;;;;;4936058;29;20058;-69
2023/04/10 14:41:49;;;;;;;;;;;;;;;;;;4935821;29;20083;-69